Time;durP1;ratioP1;P1;durP2;ratioP2;P2;SDS_P1;SDS_P2;PMS_P1;PMS_P2;Temp;Humidity;BMP_temperature;BMP_pressure;BME280_temperature;BME280_humidity;BME280_pressure;Samples;Min_cycle;Max_cycle;Signal;HPM_P1;HPM_P2
2023/03/18 00:01:08;;;;;;;;;;;20.30;39.40;;;;;;1533923;77;830;-59
2023/03/18 00:03:10;;;;;;;;;;;20.30;39.40;;;;;;1542953;77;1162;-60
2023/03/18 00:05:12;;;;;;;;;;;20.30;39.40;;;;;;1536160;77;736;-60
2023/03/18 00:07:14;;;;;;;;;;;20.30;39.30;;;;;;1534813;77;1901;-60
2023/03/18 00:09:16;;;;;;;;;;;20.30;39.40;;;;;;1540995;77;731;-59
2023/03/18 00:11:19;;;;;;;;;;;20.30;39.40;;;;;;1547080;77;1439;-60
2023/03/18 00:13:20;;;;;;;;;;;20.30;39.40;;;;;;1547233;77;1090;-62
2023/03/18 00:15:23;;;;;;;;;;;20.30;39.40;;;;;;1543095;77;915;-60
2023/03/18 00:17:25;;;;;;;;;;;20.30;39.40;;;;;;1546983;77;771;-60
2023/03/18 00:19:27;;;;;;;;;;;20.20;39.20;;;;;;1546563;77;757;-60
2023/03/18 00:21:29;;;;;;;;;;;20.30;39.40;;;;;;1544691;77;681;-61
2023/03/18 00:23:32;;;;;;;;;;;20.30;39.40;;;;;;1528943;77;1084;-60
2023/03/18 00:25:34;;;;;;;;;;;20.30;39.40;;;;;;1531268;77;1917;-61
2023/03/18 00:27:37;;;;;;;;;;;20.30;39.40;;;;;;1537864;77;706;-59
2023/03/18 00:29:39;;;;;;;;;;;20.30;39.40;;;;;;1542882;77;807;-61
2023/03/18 00:31:42;;;;;;;;;;;20.20;39.20;;;;;;1536241;77;1164;-59
2023/03/18 00:33:49;;;;;;;;;;;20.30;39.30;;;;;;1546880;77;722;-60
2023/03/18 00:35:51;;;;;;;;;;;20.20;39.20;;;;;;1539304;77;844;-59
2023/03/18 00:37:54;;;;;;;;;;;20.20;39.20;;;;;;1541312;77;1483;-60
2023/03/18 00:39:57;;;;;;;;;;;20.30;39.30;;;;;;1525824;77;738;-59
2023/03/18 00:42:06;;;;;;;;;;;20.20;39.20;;;;;;1536915;77;1126;-60
2023/03/18 00:44:03;;;;;;;;;;;20.30;39.30;;;;;;1540334;77;958;-60
2023/03/18 00:46:05;;;;;;;;;;;20.20;39.20;;;;;;1547468;77;1935;-60
2023/03/18 00:48:07;;;;;;;;;;;20.20;39.20;;;;;;1536872;77;697;-60
2023/03/18 00:50:10;;;;;;;;;;;20.20;39.20;;;;;;1543970;77;677;-60
2023/03/18 00:52:12;;;;;;;;;;;20.20;39.20;;;;;;1540299;77;1605;-59
2023/03/18 00:54:16;;;;;;;;;;;20.20;39.20;;;;;;1547275;77;692;-59
2023/03/18 00:56:18;;;;;;;;;;;20.30;39.30;;;;;;1533682;77;883;-59
2023/03/18 00:58:20;;;;;;;;;;;20.20;39.20;;;;;;1530990;77;734;-60
2023/03/18 01:00:24;;;;;;;;;;;20.20;39.20;;;;;;1546173;77;594;-60
2023/03/18 01:02:27;;;;;;;;;;;20.20;39.20;;;;;;1534458;77;1984;-59
2023/03/18 01:04:29;;;;;;;;;;;20.20;39.20;;;;;;1546997;77;677;-60
2023/03/18 01:06:31;;;;;;;;;;;20.20;39.20;;;;;;1536926;77;1926;-59
2023/03/18 01:08:33;;;;;;;;;;;20.20;39.10;;;;;;1539627;77;772;-60
2023/03/18 01:10:35;;;;;;;;;;;20.20;39.10;;;;;;1538907;77;780;-60
2023/03/18 01:12:36;;;;;;;;;;;20.20;39.20;;;;;;1538104;77;1134;-59
2023/03/18 01:14:38;;;;;;;;;;;20.20;39.20;;;;;;1539888;77;670;-60
2023/03/18 01:16:40;;;;;;;;;;;20.20;39.10;;;;;;1528670;77;770;-60
2023/03/18 01:18:42;;;;;;;;;;;20.20;39.20;;;;;;1538501;77;814;-60
2023/03/18 01:20:44;;;;;;;;;;;20.20;39.10;;;;;;1542432;77;1352;-59
2023/03/18 01:22:46;;;;;;;;;;;20.20;39.10;;;;;;1539751;77;1093;-62
2023/03/18 01:24:48;;;;;;;;;;;20.20;39.10;;;;;;1536808;77;739;-61
2023/03/18 01:26:50;;;;;;;;;;;20.20;39.10;;;;;;1543212;77;1951;-61
2023/03/18 01:28:52;;;;;;;;;;;20.20;39.10;;;;;;1546680;75;680;-59
2023/03/18 01:30:56;;;;;;;;;;;20.20;39.10;;;;;;1540048;77;725;-60
2023/03/18 01:32:57;;;;;;;;;;;20.10;39.10;;;;;;1534977;77;1092;-61
2023/03/18 01:34:59;;;;;;;;;;;20.10;39.10;;;;;;1546516;77;1456;-60
2023/03/18 01:37:02;;;;;;;;;;;20.20;39.10;;;;;;1545230;77;728;-60
2023/03/18 01:39:05;;;;;;;;;;;20.20;39.10;;;;;;1542944;77;734;-60
2023/03/18 01:41:07;;;;;;;;;;;20.10;39.10;;;;;;1541707;77;739;-60
2023/03/18 01:43:13;;;;;;;;;;;20.20;39.10;;;;;;1543800;77;1091;-59
2023/03/18 01:45:22;;;;;;;;;;;20.10;39.10;;;;;;1537997;77;768;-59
2023/03/18 01:47:24;;;;;;;;;;;20.10;39.00;;;;;;1547076;77;1902;-59
2023/03/18 01:49:45;;;;;;;;;;;20.10;39.10;;;;;;1537526;77;1458;-60
2023/03/18 01:51:49;;;;;;;;;;;20.10;39.10;;;;;;1544279;77;1098;-59
2023/03/18 01:53:51;;;;;;;;;;;20.10;39.10;;;;;;1532106;77;909;-64
2023/03/18 01:55:53;;;;;;;;;;;20.10;39.10;;;;;;1525154;77;728;-60
2023/03/18 01:57:55;;;;;;;;;;;20.10;39.10;;;;;;1539072;77;760;-59
2023/03/18 01:59:57;;;;;;;;;;;20.10;39.10;;;;;;1538164;77;734;-60
2023/03/18 02:02:05;;;;;;;;;;;20.10;39.10;;;;;;1534026;77;1108;-60
2023/03/18 02:04:09;;;;;;;;;;;20.10;39.10;;;;;;1532031;77;586;-60
2023/03/18 02:06:11;;;;;;;;;;;20.10;39.10;;;;;;1536720;77;1914;-59
2023/03/18 02:08:13;;;;;;;;;;;20.10;39.10;;;;;;1542394;77;673;-60
2023/03/18 02:10:17;;;;;;;;;;;20.10;39.10;;;;;;1543108;77;979;-59
2023/03/18 02:12:20;;;;;;;;;;;20.00;39.00;;;;;;1543048;77;1181;-61
2023/03/18 02:14:24;;;;;;;;;;;20.10;39.10;;;;;;1542905;77;587;-60
2023/03/18 02:16:31;;;;;;;;;;;20.10;39.10;;;;;;1544406;77;1442;-60
2023/03/18 02:18:34;;;;;;;;;;;20.10;39.00;;;;;;1535240;77;668;-60
2023/03/18 02:20:49;;;;;;;;;;;20.10;39.10;;;;;;1542898;77;634;-59
2023/03/18 02:22:53;;;;;;;;;;;20.10;39.10;;;;;;1532094;77;1190;-61
2023/03/18 02:24:59;;;;;;;;;;;20.00;38.90;;;;;;1533911;77;739;-60
2023/03/18 02:27:03;;;;;;;;;;;20.10;39.10;;;;;;1532020;77;1993;-62
2023/03/18 02:29:05;;;;;;;;;;;20.10;39.10;;;;;;1534016;77;742;-59
2023/03/18 02:31:08;;;;;;;;;;;20.00;38.90;;;;;;1543573;77;1598;-59
2023/03/18 02:33:10;;;;;;;;;;;20.10;39.10;;;;;;1543850;77;1139;-62
2023/03/18 02:35:12;;;;;;;;;;;20.00;39.00;;;;;;1547814;77;576;-59
2023/03/18 02:37:14;;;;;;;;;;;20.10;39.00;;;;;;1547842;77;750;-60
2023/03/18 02:39:16;;;;;;;;;;;20.10;39.10;;;;;;1542706;77;652;-60
2023/03/18 02:41:19;;;;;;;;;;;20.00;38.90;;;;;;1546010;77;751;-60
2023/03/18 02:43:23;;;;;;;;;;;20.10;39.00;;;;;;1543577;77;1138;-61
2023/03/18 02:45:44;;;;;;;;;;;20.10;39.10;;;;;;1541585;77;1560;-60
2023/03/18 02:47:46;;;;;;;;;;;20.00;38.90;;;;;;1527789;77;2089;-60
2023/03/18 02:49:48;;;;;;;;;;;20.00;38.90;;;;;;1535344;77;851;-60
2023/03/18 02:51:50;;;;;;;;;;;20.00;38.90;;;;;;1536571;77;1157;-60
2023/03/18 02:53:56;;;;;;;;;;;20.00;39.00;;;;;;1531001;77;660;-60
2023/03/18 02:55:58;;;;;;;;;;;20.00;39.10;;;;;;1537754;77;751;-59
2023/03/18 02:58:00;;;;;;;;;;;20.00;39.00;;;;;;1547381;77;675;-59
2023/03/18 03:00:02;;;;;;;;;;;20.00;39.00;;;;;;1537423;77;1533;-62
2023/03/18 03:02:04;;;;;;;;;;;20.10;39.10;;;;;;1536287;77;1147;-59
2023/03/18 03:04:06;;;;;;;;;;;20.10;39.00;;;;;;1529389;77;617;-60
2023/03/18 03:06:08;;;;;;;;;;;20.00;39.00;;;;;;1545472;77;578;-61
2023/03/18 03:08:10;;;;;;;;;;;20.00;39.00;;;;;;1541533;77;1937;-59
2023/03/18 03:10:12;;;;;;;;;;;20.10;39.10;;;;;;1529255;77;693;-59
2023/03/18 03:12:14;;;;;;;;;;;20.00;38.90;;;;;;1543482;77;1197;-60
2023/03/18 03:14:15;;;;;;;;;;;20.00;38.90;;;;;;1543841;77;1686;-59
2023/03/18 03:16:18;;;;;;;;;;;20.00;38.90;;;;;;1542677;77;805;-61
2023/03/18 03:18:20;;;;;;;;;;;20.00;38.90;;;;;;1542252;77;729;-59
2023/03/18 03:20:22;;;;;;;;;;;20.00;38.90;;;;;;1536256;77;754;-60
2023/03/18 03:22:24;;;;;;;;;;;20.00;38.90;;;;;;1524025;77;1112;-60
2023/03/18 03:24:26;;;;;;;;;;;20.00;38.90;;;;;;1526652;77;806;-59
2023/03/18 03:26:28;;;;;;;;;;;20.00;39.00;;;;;;1541457;77;1495;-60
2023/03/18 03:28:31;;;;;;;;;;;20.00;38.90;;;;;;1533771;77;1929;-60
2023/03/18 03:30:33;;;;;;;;;;;20.00;38.90;;;;;;1538075;77;807;-60
2023/03/18 03:32:35;;;;;;;;;;;20.00;38.90;;;;;;1525811;77;1131;-62
2023/03/18 03:34:37;;;;;;;;;;;20.00;38.90;;;;;;1530336;77;780;-60
2023/03/18 03:36:39;;;;;;;;;;;20.00;38.90;;;;;;1546749;77;801;-59
2023/03/18 03:38:41;;;;;;;;;;;20.00;38.90;;;;;;1545830;77;681;-59
2023/03/18 03:40:43;;;;;;;;;;;20.00;38.90;;;;;;1541856;77;1558;-60
2023/03/18 03:42:45;;;;;;;;;;;20.00;38.90;;;;;;1502800;78;1100;-60
2023/03/18 03:44:47;;;;;;;;;;;20.00;38.90;;;;;;1541865;77;738;-60
2023/03/18 03:46:49;;;;;;;;;;;20.00;38.90;;;;;;1544305;77;1954;-63
2023/03/18 03:48:51;;;;;;;;;;;20.00;38.90;;;;;;1537706;77;716;-61
2023/03/18 03:50:53;;;;;;;;;;;20.00;38.90;;;;;;1541887;77;677;-59
2023/03/18 03:52:55;;;;;;;;;;;20.00;38.90;;;;;;1545381;77;1158;-60
2023/03/18 03:54:59;;;;;;;;;;;20.00;38.90;;;;;;1532054;77;1592;-59
2023/03/18 03:57:01;;;;;;;;;;;20.00;38.90;;;;;;1544348;77;797;-60
2023/03/18 03:59:03;;;;;;;;;;;19.90;38.90;;;;;;1546980;77;688;-60
2023/03/18 04:01:05;;;;;;;;;;;20.00;38.90;;;;;;1537985;77;793;-60
2023/03/18 04:03:07;;;;;;;;;;;20.00;38.90;;;;;;1539006;77;1106;-60
2023/03/18 04:05:09;;;;;;;;;;;20.00;38.90;;;;;;1534537;77;753;-59
2023/03/18 04:07:13;;;;;;;;;;;20.00;38.90;;;;;;1532960;77;1907;-59
2023/03/18 04:09:16;;;;;;;;;;;20.00;38.90;;;;;;1538900;77;1352;-59
2023/03/18 04:11:17;;;;;;;;;;;20.00;38.90;;;;;;1546726;77;781;-60
2023/03/18 04:13:19;;;;;;;;;;;20.00;38.90;;;;;;1541446;77;1157;-59
2023/03/18 04:15:21;;;;;;;;;;;20.00;38.90;;;;;;1534791;77;655;-60
2023/03/18 04:17:23;;;;;;;;;;;19.90;38.90;;;;;;1543752;77;804;-60
2023/03/18 04:19:26;;;;;;;;;;;20.00;38.90;;;;;;1546123;77;764;-62
2023/03/18 04:21:29;;;;;;;;;;;20.00;38.90;;;;;;1536679;77;716;-59
2023/03/18 04:23:32;;;;;;;;;;;20.00;38.90;;;;;;1534465;77;1516;-59
2023/03/18 04:25:34;;;;;;;;;;;19.90;38.90;;;;;;1530300;77;757;-60
2023/03/18 04:27:36;;;;;;;;;;;19.90;38.90;;;;;;1534358;77;1955;-60
2023/03/18 04:29:38;;;;;;;;;;;20.00;38.90;;;;;;1534199;77;723;-60
2023/03/18 04:31:41;;;;;;;;;;;19.90;38.90;;;;;;1538884;77;1134;-60
2023/03/18 04:33:43;;;;;;;;;;;19.90;38.90;;;;;;1546028;77;679;-59
2023/03/18 04:35:45;;;;;;;;;;;19.90;38.90;;;;;;1535634;77;737;-60
2023/03/18 04:37:47;;;;;;;;;;;20.00;38.90;;;;;;1539974;77;1573;-59
2023/03/18 04:39:49;;;;;;;;;;;19.90;38.90;;;;;;1540148;77;706;-60
2023/03/18 04:41:51;;;;;;;;;;;19.90;38.90;;;;;;1533235;77;1149;-60
2023/03/18 04:43:53;;;;;;;;;;;19.90;38.90;;;;;;1541383;77;812;-58
2023/03/18 04:45:55;;;;;;;;;;;19.90;38.90;;;;;;1540755;77;805;-60
2023/03/18 04:47:57;;;;;;;;;;;19.90;38.90;;;;;;1540251;77;1917;-59
2023/03/18 04:49:59;;;;;;;;;;;19.90;38.90;;;;;;1542330;77;703;-61
2023/03/18 04:52:01;;;;;;;;;;;19.90;38.90;;;;;;1539359;77;1593;-60
2023/03/18 04:54:03;;;;;;;;;;;19.90;38.90;;;;;;1545238;77;593;-59
2023/03/18 04:56:06;;;;;;;;;;;20.00;38.90;;;;;;1539494;77;638;-60
2023/03/18 04:58:08;;;;;;;;;;;19.90;38.90;;;;;;1546766;77;685;-60
2023/03/18 05:00:10;;;;;;;;;;;20.00;38.90;;;;;;1540923;77;616;-60
2023/03/18 05:02:12;;;;;;;;;;;19.90;38.90;;;;;;1539345;77;1124;-60
2023/03/18 05:04:14;;;;;;;;;;;19.90;38.90;;;;;;1541379;77;822;-61
2023/03/18 05:06:18;;;;;;;;;;;19.90;38.80;;;;;;1534359;77;1342;-59
2023/03/18 05:08:20;;;;;;;;;;;19.90;38.90;;;;;;1546182;77;1919;-60
2023/03/18 05:10:22;;;;;;;;;;;19.90;38.90;;;;;;1544865;77;882;-60
2023/03/18 05:12:24;;;;;;;;;;;19.90;38.90;;;;;;1545124;77;1308;-61
2023/03/18 05:14:27;;;;;;;;;;;19.90;38.90;;;;;;1545377;77;801;-61
2023/03/18 05:16:29;;;;;;;;;;;19.80;38.70;;;;;;1542151;77;828;-61
2023/03/18 05:18:32;;;;;;;;;;;19.90;38.90;;;;;;1532870;77;781;-60
2023/03/18 05:20:34;;;;;;;;;;;19.90;38.90;;;;;;1537420;77;1510;-59
2023/03/18 05:22:36;;;;;;;;;;;19.90;38.90;;;;;;1529630;77;1146;-58
2023/03/18 05:24:39;;;;;;;;;;;19.90;38.90;;;;;;1535475;77;898;-59
2023/03/18 05:26:41;;;;;;;;;;;19.90;38.90;;;;;;1545703;77;696;-63
2023/03/18 05:28:42;;;;;;;;;;;19.80;38.90;;;;;;1538053;77;1939;-60
2023/03/18 05:30:46;;;;;;;;;;;19.90;39.00;;;;;;1547485;77;776;-60
2023/03/18 05:32:48;;;;;;;;;;;19.80;39.00;;;;;;1530647;77;1147;-62
2023/03/18 05:34:49;;;;;;;;;;;19.90;39.20;;;;;;1535359;77;1235;-59
2023/03/18 05:36:51;;;;;;;;;;;19.90;39.10;;;;;;1539535;77;826;-59
2023/03/18 05:38:53;;;;;;;;;;;19.80;39.10;;;;;;1541078;77;703;-60
2023/03/18 05:40:55;;;;;;;;;;;19.90;39.20;;;;;;1539446;77;770;-59
2023/03/18 05:42:57;;;;;;;;;;;19.80;39.10;;;;;;1543889;77;1153;-60
2023/03/18 05:44:59;;;;;;;;;;;19.80;39.10;;;;;;1539505;77;743;-59
2023/03/18 05:47:01;;;;;;;;;;;19.90;39.20;;;;;;1538765;77;804;-59
2023/03/18 05:49:03;;;;;;;;;;;19.90;39.20;;;;;;1540876;77;1912;-59
2023/03/18 05:51:05;;;;;;;;;;;19.90;39.20;;;;;;1533782;77;798;-59
2023/03/18 05:53:07;;;;;;;;;;;19.90;39.20;;;;;;1542591;77;1122;-59
2023/03/18 05:55:09;;;;;;;;;;;19.90;39.20;;;;;;1531428;77;776;-60
2023/03/18 05:57:11;;;;;;;;;;;19.90;39.20;;;;;;1532560;77;708;-61
2023/03/18 05:59:13;;;;;;;;;;;19.90;39.20;;;;;;1546584;77;575;-60
2023/03/18 06:01:15;;;;;;;;;;;20.00;39.20;;;;;;1540117;77;1567;-62
2023/03/18 06:03:17;;;;;;;;;;;19.90;39.10;;;;;;1542557;77;1113;-59
2023/03/18 06:05:19;;;;;;;;;;;19.90;39.10;;;;;;1547025;77;788;-61
2023/03/18 06:07:21;;;;;;;;;;;19.90;39.00;;;;;;1546543;77;693;-59
2023/03/18 06:09:24;;;;;;;;;;;19.90;39.10;;;;;;1534196;77;1996;-60
2023/03/18 06:11:28;;;;;;;;;;;20.00;39.10;;;;;;1542870;77;660;-59
2023/03/18 06:13:30;;;;;;;;;;;20.00;39.10;;;;;;1542703;77;1142;-62
2023/03/18 06:15:32;;;;;;;;;;;19.90;39.10;;;;;;1538375;77;1336;-60
2023/03/18 06:17:34;;;;;;;;;;;20.00;39.10;;;;;;1542198;77;705;-59
2023/03/18 06:19:36;;;;;;;;;;;20.00;39.10;;;;;;1547651;77;738;-60
2023/03/18 06:21:38;;;;;;;;;;;20.10;39.20;;;;;;1538217;77;1154;-60
2023/03/18 06:23:40;;;;;;;;;;;20.00;39.00;;;;;;1534911;77;790;-61
2023/03/18 06:25:42;;;;;;;;;;;20.10;39.10;;;;;;1546896;77;759;-59
2023/03/18 06:27:49;;;;;;;;;;;20.00;39.00;;;;;;1537287;77;1930;-59
2023/03/18 06:29:51;;;;;;;;;;;20.00;39.00;;;;;;1536203;77;1541;-61
2023/03/18 06:31:52;;;;;;;;;;;20.00;38.90;;;;;;1531549;77;1131;-58
2023/03/18 06:33:54;;;;;;;;;;;20.00;39.00;;;;;;1534628;77;751;-59
2023/03/18 06:35:57;;;;;;;;;;;20.00;39.00;;;;;;1540010;77;844;-59
2023/03/18 06:38:00;;;;;;;;;;;20.00;39.00;;;;;;1531914;77;889;-61
2023/03/18 06:40:02;;;;;;;;;;;20.00;38.90;;;;;;1539672;77;811;-60
2023/03/18 06:42:04;;;;;;;;;;;20.00;39.00;;;;;;1542308;77;1122;-61
2023/03/18 06:44:06;;;;;;;;;;;20.00;38.90;;;;;;1539402;77;1489;-61
2023/03/18 06:46:09;;;;;;;;;;;20.00;39.00;;;;;;1542500;77;763;-60
2023/03/18 06:48:11;;;;;;;;;;;20.00;39.00;;;;;;1545963;77;1939;-60
2023/03/18 06:50:13;;;;;;;;;;;20.00;38.90;;;;;;1547300;77;675;-60
2023/03/18 06:52:16;;;;;;;;;;;20.00;38.90;;;;;;1542610;77;1198;-60
2023/03/18 06:54:18;;;;;;;;;;;20.00;38.90;;;;;;1538936;77;661;-60
2023/03/18 06:56:21;;;;;;;;;;;20.10;39.10;;;;;;1538252;77;778;-60
2023/03/18 06:58:23;;;;;;;;;;;20.00;39.00;;;;;;1547967;77;1326;-60
2023/03/18 07:00:25;;;;;;;;;;;20.10;39.10;;;;;;1543263;77;785;-60
2023/03/18 07:02:27;;;;;;;;;;;20.00;39.00;;;;;;1547652;77;1151;-60
2023/03/18 07:04:29;;;;;;;;;;;20.00;39.00;;;;;;1545395;77;828;-59
2023/03/18 07:06:31;;;;;;;;;;;20.00;38.90;;;;;;1544291;77;679;-59
2023/03/18 07:08:33;;;;;;;;;;;20.00;38.90;;;;;;1533883;77;1931;-59
2023/03/18 07:10:35;;;;;;;;;;;20.00;38.90;;;;;;1544933;77;748;-60
2023/03/18 07:12:37;;;;;;;;;;;20.00;38.90;;;;;;1547686;75;1567;-60
2023/03/18 07:14:39;;;;;;;;;;;20.10;39.10;;;;;;1545837;77;801;-60
2023/03/18 07:16:41;;;;;;;;;;;20.00;38.90;;;;;;1538180;77;697;-60
2023/03/18 07:18:43;;;;;;;;;;;20.00;38.90;;;;;;1536618;77;631;-61
2023/03/18 07:20:45;;;;;;;;;;;20.00;38.90;;;;;;1546283;77;721;-62
2023/03/18 07:22:47;;;;;;;;;;;20.00;38.90;;;;;;1547614;77;1078;-59
2023/03/18 07:24:50;;;;;;;;;;;20.00;38.90;;;;;;1540195;77;694;-59
2023/03/18 07:26:52;;;;;;;;;;;20.10;39.00;;;;;;1534924;77;1484;-60
2023/03/18 07:28:54;;;;;;;;;;;20.10;39.00;;;;;;1526229;77;1917;-59
2023/03/18 07:30:56;;;;;;;;;;;20.10;39.10;;;;;;1544543;77;786;-62
2023/03/18 07:32:58;;;;;;;;;;;20.10;39.10;;;;;;1529971;77;1085;-60
2023/03/18 07:35:01;;;;;;;;;;;20.10;39.00;;;;;;1531480;77;927;-59
2023/03/18 07:37:03;;;;;;;;;;;20.10;39.00;;;;;;1545792;77;825;-59
2023/03/18 07:39:05;;;;;;;;;;;20.10;39.00;;;;;;1538439;77;764;-60
2023/03/18 07:41:07;;;;;;;;;;;20.10;38.90;;;;;;1542902;77;1662;-61
2023/03/18 07:43:09;;;;;;;;;;;20.10;39.00;;;;;;1539388;77;1084;-60
2023/03/18 07:45:11;;;;;;;;;;;20.20;39.00;;;;;;1547022;77;661;-60
2023/03/18 07:47:16;;;;;;;;;;;20.20;38.90;;;;;;1529685;77;660;-61
2023/03/18 07:49:18;;;;;;;;;;;20.20;39.00;;;;;;1539708;77;1913;-61
2023/03/18 07:51:20;;;;;;;;;;;20.20;38.90;;;;;;1541949;77;683;-61
2023/03/18 07:53:22;;;;;;;;;;;20.30;39.10;;;;;;1542384;77;1127;-60
2023/03/18 07:55:24;;;;;;;;;;;20.20;38.90;;;;;;1533209;77;1316;-59
2023/03/18 07:57:26;;;;;;;;;;;20.30;39.00;;;;;;1539489;77;686;-59
2023/03/18 07:59:28;;;;;;;;;;;20.30;39.00;;;;;;1544019;77;795;-60
2023/03/18 08:01:30;;;;;;;;;;;20.30;39.00;;;;;;1539208;77;667;-60
2023/03/18 08:03:32;;;;;;;;;;;20.30;38.90;;;;;;1534395;77;1137;-63
2023/03/18 08:05:34;;;;;;;;;;;20.30;38.90;;;;;;1538645;77;803;-61
2023/03/18 08:07:37;;;;;;;;;;;20.30;38.90;;;;;;1546694;77;748;-59
2023/03/18 08:09:39;;;;;;;;;;;20.40;38.80;;;;;;1540458;77;1924;-60
2023/03/18 08:11:41;;;;;;;;;;;20.40;38.90;;;;;;1538868;77;1176;-60
2023/03/18 08:13:43;;;;;;;;;;;20.40;38.90;;;;;;1537322;77;686;-61
2023/03/18 08:15:45;;;;;;;;;;;20.40;38.80;;;;;;1529914;77;685;-60
2023/03/18 08:17:47;;;;;;;;;;;20.50;38.90;;;;;;1536801;77;585;-60
2023/03/18 08:19:49;;;;;;;;;;;20.50;38.80;;;;;;1534097;77;754;-59
2023/03/18 08:21:51;;;;;;;;;;;20.50;38.80;;;;;;1544309;77;1451;-60
2023/03/18 08:23:53;;;;;;;;;;;20.60;38.70;;;;;;1535082;77;720;-59
2023/03/18 08:25:55;;;;;;;;;;;20.60;38.70;;;;;;1533383;77;777;-61
2023/03/18 08:27:57;;;;;;;;;;;20.70;38.70;;;;;;1537579;77;791;-60
2023/03/18 08:29:59;;;;;;;;;;;20.70;38.70;;;;;;1529921;77;1933;-60
2023/03/18 08:32:01;;;;;;;;;;;20.70;38.60;;;;;;1539725;77;1115;-59
2023/03/18 08:34:02;;;;;;;;;;;20.70;38.60;;;;;;1544432;77;771;-59
2023/03/18 08:36:04;;;;;;;;;;;20.60;38.40;;;;;;1527772;77;1496;-60
2023/03/18 08:38:06;;;;;;;;;;;20.60;38.30;;;;;;1543465;77;728;-60
2023/03/18 08:40:09;;;;;;;;;;;20.70;38.40;;;;;;1548245;77;729;-59
2023/03/18 08:42:11;;;;;;;;;;;20.70;38.30;;;;;;1536333;77;1158;-60
2023/03/18 08:44:14;;;;;;;;;;;20.70;38.30;;;;;;1542350;77;695;-59
2023/03/18 08:46:17;;;;;;;;;;;20.70;38.20;;;;;;1530957;77;773;-60
2023/03/18 08:48:19;;;;;;;;;;;20.80;38.20;;;;;;1545103;77;703;-60
2023/03/18 08:50:27;;;;;;;;;;;20.80;38.20;;;;;;1544638;77;1923;-59
2023/03/18 08:52:25;;;;;;;;;;;20.70;38.20;;;;;;1537951;77;1618;-60
2023/03/18 08:54:27;;;;;;;;;;;20.80;38.10;;;;;;1538457;77;732;-60
2023/03/18 08:56:29;;;;;;;;;;;20.80;38.10;;;;;;1543093;77;655;-61
2023/03/18 08:58:31;;;;;;;;;;;20.80;38.10;;;;;;1538805;77;734;-59
2023/03/18 09:00:33;;;;;;;;;;;20.80;38.10;;;;;;1529662;77;813;-59
2023/03/18 09:02:35;;;;;;;;;;;20.80;38.00;;;;;;1533155;77;1126;-59
2023/03/18 09:04:37;;;;;;;;;;;20.80;37.90;;;;;;1540280;77;1471;-59
2023/03/18 09:06:40;;;;;;;;;;;20.80;37.90;;;;;;1534961;77;832;-63
2023/03/18 09:08:42;;;;;;;;;;;20.90;38.00;;;;;;1540172;77;1911;-60
2023/03/18 09:10:45;;;;;;;;;;;20.90;38.00;;;;;;1545724;77;817;-60
2023/03/18 09:12:46;;;;;;;;;;;20.90;38.00;;;;;;1546103;77;1139;-62
2023/03/18 09:14:48;;;;;;;;;;;20.90;38.00;;;;;;1529626;77;725;-60
2023/03/18 09:16:50;;;;;;;;;;;20.90;37.90;;;;;;1535318;77;689;-60
2023/03/18 09:18:52;;;;;;;;;;;20.90;37.80;;;;;;1527601;77;1364;-60
2023/03/18 09:20:55;;;;;;;;;;;20.90;37.80;;;;;;1543841;77;664;-60
2023/03/18 09:22:58;;;;;;;;;;;21.00;37.80;;;;;;1529203;77;1130;-59
2023/03/18 09:25:00;;;;;;;;;;;21.00;37.80;;;;;;1545861;77;757;-60
2023/03/18 09:27:01;;;;;;;;;;;21.00;37.70;;;;;;1535366;77;727;-60
2023/03/18 09:29:03;;;;;;;;;;;21.00;37.70;;;;;;1540693;77;1933;-61
2023/03/18 09:31:05;;;;;;;;;;;21.00;37.60;;;;;;1540002;77;773;-60
2023/03/18 09:33:08;;;;;;;;;;;21.00;37.60;;;;;;1535250;77;1588;-60
2023/03/18 09:35:10;;;;;;;;;;;21.00;37.60;;;;;;1534604;77;932;-61
2023/03/18 09:37:16;;;;;;;;;;;21.10;37.70;;;;;;1542553;77;765;-62
2023/03/18 09:39:16;;;;;;;;;;;21.10;37.70;;;;;;1538260;77;1622;-60
2023/03/18 09:41:19;;;;;;;;;;;21.10;37.60;;;;;;1540561;77;716;-62
2023/03/18 09:43:29;;;;;;;;;;;20.90;37.50;;;;;;1543155;77;1115;-60
2023/03/18 09:45:32;;;;;;;;;;;21.10;37.50;;;;;;1540314;77;614;-59
2023/03/18 09:47:45;;;;;;;;;;;21.10;37.50;;;;;;1545956;77;1828;-61
2023/03/18 09:49:58;;;;;;;;;;;21.10;37.50;;;;;;1540403;77;1937;-60
2023/03/18 09:52:20;;;;;;;;;;;21.10;37.60;;;;;;1541651;77;1126;-60
2023/03/18 09:54:40;;;;;;;;;;;21.10;37.50;;;;;;1535338;77;1613;-62
2023/03/18 09:56:41;;;;;;;;;;;21.10;37.50;;;;;;1539367;77;696;-62
2023/03/18 09:58:51;;;;;;;;;;;21.10;37.50;;;;;;1547609;77;616;-61
2023/03/18 10:00:55;;;;;;;;;;;21.10;37.50;;;;;;1525480;77;1594;-59
2023/03/18 10:03:02;;;;;;;;;;;21.10;37.50;;;;;;1514223;78;1159;-60
2023/03/18 10:05:05;;;;;;;;;;;21.10;37.50;;;;;;1532505;77;1261;-60
2023/03/18 10:07:08;;;;;;;;;;;21.10;37.40;;;;;;1538552;77;798;-60
2023/03/18 10:09:18;;;;;;;;;;;21.10;37.50;;;;;;1543921;77;1964;-60
2023/03/18 10:11:28;;;;;;;;;;;21.10;37.40;;;;;;1536310;77;1749;-60
2023/03/18 10:13:31;;;;;;;;;;;21.10;37.40;;;;;;1534868;77;1922;-60
2023/03/18 10:15:35;;;;;;;;;;;21.10;37.30;;;;;;1543413;77;1602;-60
2023/03/18 10:17:41;;;;;;;;;;;21.20;37.40;;;;;;1543555;77;1122;-60
2023/03/18 10:19:45;;;;;;;;;;;21.10;37.40;;;;;;1538215;77;1795;-61
2023/03/18 10:21:48;;;;;;;;;;;21.10;37.40;;;;;;1529753;77;1190;-59
2023/03/18 10:24:01;;;;;;;;;;;21.10;37.30;;;;;;1535553;77;646;-62
2023/03/18 10:26:08;;;;;;;;;;;21.10;37.30;;;;;;1530998;77;2078;-60
2023/03/18 10:28:28;;;;;;;;;;;21.10;37.30;;;;;;1546779;77;1974;-59
2023/03/18 10:30:48;;;;;;;;;;;21.10;37.30;;;;;;1529443;77;1912;-62
2023/03/18 10:32:58;;;;;;;;;;;21.10;37.30;;;;;;1526966;77;1100;-60
2023/03/18 10:35:08;;;;;;;;;;;21.10;37.40;;;;;;1500876;77;1041;-60
2023/03/18 10:37:14;;;;;;;;;;;21.10;37.30;;;;;;1531773;77;745;-60
2023/03/18 10:39:20;;;;;;;;;;;21.10;37.30;;;;;;1537642;77;1101;-60
2023/03/18 10:41:23;;;;;;;;;;;21.00;37.30;;;;;;1547969;77;749;-60
2023/03/18 10:43:27;;;;;;;;;;;21.10;37.40;;;;;;1544144;77;1519;-59
2023/03/18 10:45:29;;;;;;;;;;;21.10;37.40;;;;;;1542904;77;854;-59
2023/03/18 10:47:32;;;;;;;;;;;21.10;37.30;;;;;;1543087;77;762;-59
2023/03/18 10:49:35;;;;;;;;;;;21.10;37.30;;;;;;1537507;77;1916;-60
2023/03/18 10:51:42;;;;;;;;;;;21.10;37.30;;;;;;1548075;77;1153;-59
2023/03/18 10:53:45;;;;;;;;;;;21.10;37.40;;;;;;1527738;77;1738;-60
2023/03/18 10:55:52;;;;;;;;;;;21.10;37.40;;;;;;1545167;77;616;-61
2023/03/18 10:57:54;;;;;;;;;;;21.10;37.50;;;;;;1537245;77;1459;-61
2023/03/18 10:59:56;;;;;;;;;;;20.90;37.30;;;;;;1542929;77;714;-60
2023/03/18 11:02:00;;;;;;;;;;;21.00;37.30;;;;;;1535899;77;1154;-60
2023/03/18 11:04:04;;;;;;;;;;;21.00;37.30;;;;;;1532003;77;1427;-60
2023/03/18 11:06:06;;;;;;;;;;;21.10;37.50;;;;;;1545039;77;736;-61
2023/03/18 11:08:09;;;;;;;;;;;21.10;37.50;;;;;;1545748;77;786;-59
2023/03/18 11:10:12;;;;;;;;;;;21.00;37.40;;;;;;1549536;75;1923;-63
2023/03/18 11:12:18;;;;;;;;;;;21.00;37.40;;;;;;1541476;77;1686;-60
2023/03/18 11:14:21;;;;;;;;;;;21.00;37.30;;;;;;1541338;77;677;-60
2023/03/18 11:16:24;;;;;;;;;;;21.00;37.40;;;;;;1535855;77;728;-60
2023/03/18 11:18:26;;;;;;;;;;;21.00;37.40;;;;;;1540799;77;820;-60
2023/03/18 11:20:44;;;;;;;;;;;21.00;37.40;;;;;;1532572;77;709;-60
2023/03/18 11:22:47;;;;;;;;;;;21.00;37.50;;;;;;1541531;77;1155;-61
2023/03/18 11:24:53;;;;;;;;;;;21.00;37.50;;;;;;1546310;77;1357;-61
2023/03/18 11:26:55;;;;;;;;;;;21.00;37.50;;;;;;1519691;77;1338;-59
2023/03/18 11:28:59;;;;;;;;;;;21.00;37.60;;;;;;1540889;77;788;-59
2023/03/18 11:31:01;;;;;;;;;;;21.00;37.60;;;;;;1533072;77;1937;-61
2023/03/18 11:33:05;;;;;;;;;;;21.00;37.60;;;;;;1501786;77;1149;-60
2023/03/18 11:35:09;;;;;;;;;;;21.00;37.60;;;;;;1536528;77;752;-60
2023/03/18 11:37:11;;;;;;;;;;;21.00;37.60;;;;;;1541722;77;1496;-59
2023/03/18 11:39:13;;;;;;;;;;;20.90;37.60;;;;;;1537575;77;1389;-60
2023/03/18 11:41:26;;;;;;;;;;;20.90;37.60;;;;;;1541803;77;733;-62
2023/03/18 11:43:28;;;;;;;;;;;20.90;37.60;;;;;;1532494;77;1123;-60
2023/03/18 11:45:49;;;;;;;;;;;20.90;37.60;;;;;;1534800;77;694;-60
2023/03/18 11:47:52;;;;;;;;;;;20.90;37.60;;;;;;1541338;77;730;-59
2023/03/18 11:49:54;;;;;;;;;;;20.90;37.70;;;;;;1543537;77;1916;-59
2023/03/18 11:52:01;;;;;;;;;;;20.90;37.60;;;;;;1542575;77;1175;-59
2023/03/18 11:54:13;;;;;;;;;;;20.90;37.60;;;;;;1541402;77;1491;-59
2023/03/18 11:56:23;;;;;;;;;;;20.90;37.70;;;;;;1537964;77;1788;-60
2023/03/18 11:58:43;;;;;;;;;;;20.90;37.80;;;;;;1538304;77;819;-60
2023/03/18 12:00:53;;;;;;;;;;;20.80;37.60;;;;;;1540216;77;665;-60
2023/03/18 12:03:02;;;;;;;;;;;20.90;37.70;;;;;;1539432;77;1154;-59
2023/03/18 12:05:23;;;;;;;;;;;20.90;37.80;;;;;;1536180;77;1970;-60
2023/03/18 12:07:29;;;;;;;;;;;20.80;37.70;;;;;;1532550;77;1363;-59
2023/03/18 12:09:32;;;;;;;;;;;20.80;37.80;;;;;;1539050;77;1501;-60
2023/03/18 12:11:41;;;;;;;;;;;20.80;37.80;;;;;;1544473;77;1135;-62
2023/03/18 12:14:00;;;;;;;;;;;20.80;38.00;;;;;;1538281;77;1971;-62